sensor_id;sensor_type;location;lat;lon;timestamp;P1;durP1;ratioP1;P2;durP2;ratioP2
75358;SDS011;64046;51.978;5.934;2023-04-16T00:01:05;19.15;;;6.25;;
75358;SDS011;64046;51.978;5.934;2023-04-16T00:03:34;19.05;;;6.70;;
75358;SDS011;64046;51.978;5.934;2023-04-16T00:06:06;21.13;;;7.35;;
75358;SDS011;64046;51.978;5.934;2023-04-16T00:08:35;18.38;;;6.30;;
75358;SDS011;64046;51.978;5.934;2023-04-16T00:11:05;22.85;;;7.20;;
75358;SDS011;64046;51.978;5.934;2023-04-16T00:13:35;18.75;;;6.22;;
75358;SDS011;64046;51.978;5.934;2023-04-16T00:16:05;18.80;;;6.72;;
75358;SDS011;64046;51.978;5.934;2023-04-16T00:18:34;21.63;;;6.90;;
75358;SDS011;64046;51.978;5.934;2023-04-16T00:21:06;20.45;;;7.72;;
75358;SDS011;64046;51.978;5.934;2023-04-16T00:23:35;18.80;;;7.20;;
75358;SDS011;64046;51.978;5.934;2023-04-16T00:26:05;24.08;;;7.47;;
75358;SDS011;64046;51.978;5.934;2023-04-16T00:28:34;22.80;;;7.72;;
75358;SDS011;64046;51.978;5.934;2023-04-16T00:31:04;26.30;;;8.65;;
75358;SDS011;64046;51.978;5.934;2023-04-16T00:33:33;18.23;;;7.50;;
75358;SDS011;64046;51.978;5.934;2023-04-16T00:36:02;26.58;;;8.27;;
75358;SDS011;64046;51.978;5.934;2023-04-16T00:38:35;22.45;;;8.15;;
75358;SDS011;64046;51.978;5.934;2023-04-16T00:41:04;19.38;;;6.60;;
75358;SDS011;64046;51.978;5.934;2023-04-16T00:43:33;26.38;;;7.22;;
75358;SDS011;64046;51.978;5.934;2023-04-16T00:46:03;17.65;;;6.45;;
75358;SDS011;64046;51.978;5.934;2023-04-16T00:48:33;22.05;;;7.65;;
75358;SDS011;64046;51.978;5.934;2023-04-16T00:51:03;25.95;;;7.53;;
75358;SDS011;64046;51.978;5.934;2023-04-16T00:53:36;26.05;;;8.50;;
75358;SDS011;64046;51.978;5.934;2023-04-16T00:56:06;24.05;;;7.55;;
75358;SDS011;64046;51.978;5.934;2023-04-16T00:58:35;21.70;;;7.78;;
75358;SDS011;64046;51.978;5.934;2023-04-16T01:01:04;19.63;;;6.30;;
75358;SDS011;64046;51.978;5.934;2023-04-16T01:03:36;20.42;;;7.97;;
75358;SDS011;64046;51.978;5.934;2023-04-16T01:06:06;21.23;;;7.72;;
75358;SDS011;64046;51.978;5.934;2023-04-16T01:08:39;28.10;;;8.35;;
75358;SDS011;64046;51.978;5.934;2023-04-16T01:11:08;25.90;;;9.57;;
75358;SDS011;64046;51.978;5.934;2023-04-16T01:13:38;26.25;;;8.20;;
75358;SDS011;64046;51.978;5.934;2023-04-16T01:16:08;23.35;;;8.32;;
75358;SDS011;64046;51.978;5.934;2023-04-16T01:18:39;23.48;;;7.78;;
75358;SDS011;64046;51.978;5.934;2023-04-16T01:21:11;24.83;;;9.05;;
75358;SDS011;64046;51.978;5.934;2023-04-16T01:23:40;18.95;;;7.88;;
75358;SDS011;64046;51.978;5.934;2023-04-16T01:26:09;21.48;;;7.65;;
75358;SDS011;64046;51.978;5.934;2023-04-16T01:28:38;24.40;;;8.23;;
75358;SDS011;64046;51.978;5.934;2023-04-16T01:31:08;22.58;;;8.93;;
75358;SDS011;64046;51.978;5.934;2023-04-16T01:34:09;32.25;;;10.50;;
75358;SDS011;64046;51.978;5.934;2023-04-16T01:36:41;23.30;;;7.97;;
75358;SDS011;64046;51.978;5.934;2023-04-16T01:39:10;26.80;;;11.02;;
75358;SDS011;64046;51.978;5.934;2023-04-16T01:41:41;25.75;;;10.57;;
75358;SDS011;64046;51.978;5.934;2023-04-16T01:44:10;23.77;;;10.15;;
75358;SDS011;64046;51.978;5.934;2023-04-16T01:46:41;25.55;;;10.02;;
75358;SDS011;64046;51.978;5.934;2023-04-16T01:49:11;24.17;;;9.10;;
75358;SDS011;64046;51.978;5.934;2023-04-16T01:51:43;27.63;;;9.93;;
75358;SDS011;64046;51.978;5.934;2023-04-16T01:54:12;27.70;;;9.75;;
75358;SDS011;64046;51.978;5.934;2023-04-16T01:56:41;28.95;;;10.52;;
75358;SDS011;64046;51.978;5.934;2023-04-16T01:59:10;25.05;;;10.38;;
75358;SDS011;64046;51.978;5.934;2023-04-16T02:01:40;29.15;;;10.75;;
75358;SDS011;64046;51.978;5.934;2023-04-16T02:04:10;29.48;;;10.93;;
75358;SDS011;64046;51.978;5.934;2023-04-16T02:06:43;29.60;;;10.35;;
75358;SDS011;64046;51.978;5.934;2023-04-16T02:09:13;26.60;;;11.52;;
75358;SDS011;64046;51.978;5.934;2023-04-16T02:11:42;25.27;;;9.82;;
75358;SDS011;64046;51.978;5.934;2023-04-16T02:14:12;28.60;;;11.35;;
75358;SDS011;64046;51.978;5.934;2023-04-16T02:16:41;33.25;;;11.65;;
75358;SDS011;64046;51.978;5.934;2023-04-16T02:19:18;34.63;;;12.70;;
75358;SDS011;64046;51.978;5.934;2023-04-16T02:21:50;23.80;;;9.73;;
75358;SDS011;64046;51.978;5.934;2023-04-16T02:24:19;26.90;;;10.25;;
75358;SDS011;64046;51.978;5.934;2023-04-16T02:26:49;27.55;;;10.32;;
75358;SDS011;64046;51.978;5.934;2023-04-16T02:29:19;32.08;;;13.18;;
75358;SDS011;64046;51.978;5.934;2023-04-16T02:31:58;30.80;;;12.88;;
75358;SDS011;64046;51.978;5.934;2023-04-16T02:34:28;33.50;;;12.18;;
75358;SDS011;64046;51.978;5.934;2023-04-16T02:37:01;34.53;;;12.35;;
75358;SDS011;64046;51.978;5.934;2023-04-16T02:39:31;27.63;;;11.60;;
75358;SDS011;64046;51.978;5.934;2023-04-16T02:42:00;33.97;;;11.63;;
75358;SDS011;64046;51.978;5.934;2023-04-16T02:44:29;43.05;;;15.65;;
75358;SDS011;64046;51.978;5.934;2023-04-16T02:46:58;28.98;;;11.73;;
75358;SDS011;64046;51.978;5.934;2023-04-16T02:49:27;31.27;;;13.07;;
75358;SDS011;64046;51.978;5.934;2023-04-16T02:51:56;35.30;;;14.18;;
75358;SDS011;64046;51.978;5.934;2023-04-16T02:54:28;23.63;;;11.55;;
75358;SDS011;64046;51.978;5.934;2023-04-16T02:56:57;31.52;;;12.43;;
75358;SDS011;64046;51.978;5.934;2023-04-16T02:59:27;31.23;;;12.43;;
75358;SDS011;64046;51.978;5.934;2023-04-16T03:01:56;33.17;;;13.60;;
75358;SDS011;64046;51.978;5.934;2023-04-16T03:04:25;27.73;;;10.85;;
75358;SDS011;64046;51.978;5.934;2023-04-16T03:06:54;32.33;;;13.43;;
75358;SDS011;64046;51.978;5.934;2023-04-16T03:09:23;30.30;;;12.25;;
75358;SDS011;64046;51.978;5.934;2023-04-16T03:11:55;33.88;;;13.48;;
75358;SDS011;64046;51.978;5.934;2023-04-16T03:14:24;24.75;;;10.82;;
75358;SDS011;64046;51.978;5.934;2023-04-16T03:16:53;33.20;;;12.30;;
75358;SDS011;64046;51.978;5.934;2023-04-16T03:19:22;26.50;;;10.63;;
75358;SDS011;64046;51.978;5.934;2023-04-16T03:21:51;26.73;;;13.50;;
75358;SDS011;64046;51.978;5.934;2023-04-16T03:24:21;36.05;;;14.13;;
75358;SDS011;64046;51.978;5.934;2023-04-16T03:26:50;26.02;;;10.50;;
75358;SDS011;64046;51.978;5.934;2023-04-16T03:29:25;29.55;;;11.93;;
75358;SDS011;64046;51.978;5.934;2023-04-16T03:31:55;25.02;;;10.95;;
75358;SDS011;64046;51.978;5.934;2023-04-16T03:34:25;37.45;;;13.57;;
75358;SDS011;64046;51.978;5.934;2023-04-16T03:36:54;28.98;;;12.52;;
75358;SDS011;64046;51.978;5.934;2023-04-16T03:39:23;28.05;;;11.98;;
75358;SDS011;64046;51.978;5.934;2023-04-16T03:41:52;28.17;;;11.98;;
75358;SDS011;64046;51.978;5.934;2023-04-16T03:44:24;27.95;;;13.07;;
75358;SDS011;64046;51.978;5.934;2023-04-16T03:46:54;32.50;;;14.20;;
75358;SDS011;64046;51.978;5.934;2023-04-16T03:49:23;33.88;;;15.07;;
75358;SDS011;64046;51.978;5.934;2023-04-16T03:51:52;34.30;;;13.52;;
75358;SDS011;64046;51.978;5.934;2023-04-16T03:54:21;29.80;;;11.98;;
75358;SDS011;64046;51.978;5.934;2023-04-16T03:57:00;33.03;;;15.07;;
75358;SDS011;64046;51.978;5.934;2023-04-16T03:59:32;39.13;;;15.98;;
75358;SDS011;64046;51.978;5.934;2023-04-16T04:02:01;30.33;;;13.20;;
75358;SDS011;64046;51.978;5.934;2023-04-16T04:04:31;32.97;;;14.35;;
75358;SDS011;64046;51.978;5.934;2023-04-16T04:07:00;30.92;;;12.82;;
75358;SDS011;64046;51.978;5.934;2023-04-16T04:09:30;29.25;;;12.63;;
75358;SDS011;64046;51.978;5.934;2023-04-16T04:11:59;31.50;;;11.95;;
75358;SDS011;64046;51.978;5.934;2023-04-16T04:14:28;39.15;;;16.33;;
75358;SDS011;64046;51.978;5.934;2023-04-16T04:17:05;34.17;;;14.95;;
75358;SDS011;64046;51.978;5.934;2023-04-16T04:19:34;37.67;;;15.70;;
75358;SDS011;64046;51.978;5.934;2023-04-16T04:22:03;27.42;;;11.73;;
75358;SDS011;64046;51.978;5.934;2023-04-16T04:24:32;31.10;;;13.35;;
75358;SDS011;64046;51.978;5.934;2023-04-16T04:27:02;34.88;;;14.20;;
75358;SDS011;64046;51.978;5.934;2023-04-16T04:29:34;35.30;;;15.15;;
75358;SDS011;64046;51.978;5.934;2023-04-16T04:32:03;35.72;;;15.73;;
75358;SDS011;64046;51.978;5.934;2023-04-16T04:34:33;34.63;;;15.25;;
75358;SDS011;64046;51.978;5.934;2023-04-16T04:37:03;34.55;;;16.00;;
75358;SDS011;64046;51.978;5.934;2023-04-16T04:39:32;36.85;;;14.88;;
75358;SDS011;64046;51.978;5.934;2023-04-16T04:42:01;36.03;;;15.35;;
75358;SDS011;64046;51.978;5.934;2023-04-16T04:44:31;39.22;;;15.20;;
75358;SDS011;64046;51.978;5.934;2023-04-16T04:47:02;30.58;;;13.43;;
75358;SDS011;64046;51.978;5.934;2023-04-16T04:49:31;44.70;;;15.70;;
75358;SDS011;64046;51.978;5.934;2023-04-16T04:52:02;30.55;;;13.38;;
75358;SDS011;64046;51.978;5.934;2023-04-16T04:54:31;51.33;;;18.42;;
75358;SDS011;64046;51.978;5.934;2023-04-16T04:57:00;31.52;;;13.40;;
75358;SDS011;64046;51.978;5.934;2023-04-16T04:59:30;32.40;;;14.30;;
75358;SDS011;64046;51.978;5.934;2023-04-16T05:02:02;40.78;;;17.35;;
75358;SDS011;64046;51.978;5.934;2023-04-16T05:04:31;34.33;;;14.70;;
75358;SDS011;64046;51.978;5.934;2023-04-16T05:07:00;34.22;;;15.15;;
75358;SDS011;64046;51.978;5.934;2023-04-16T05:09:29;28.80;;;13.55;;
75358;SDS011;64046;51.978;5.934;2023-04-16T05:11:58;39.42;;;16.40;;
75358;SDS011;64046;51.978;5.934;2023-04-16T05:14:28;31.17;;;13.65;;
75358;SDS011;64046;51.978;5.934;2023-04-16T05:16:57;37.60;;;15.23;;
75358;SDS011;64046;51.978;5.934;2023-04-16T05:19:29;35.78;;;15.18;;
75358;SDS011;64046;51.978;5.934;2023-04-16T05:21:58;36.88;;;15.93;;
75358;SDS011;64046;51.978;5.934;2023-04-16T05:24:27;42.80;;;15.77;;
75358;SDS011;64046;51.978;5.934;2023-04-16T05:26:56;42.03;;;17.73;;
75358;SDS011;64046;51.978;5.934;2023-04-16T05:29:26;39.58;;;15.90;;
75358;SDS011;64046;51.978;5.934;2023-04-16T05:31:55;45.88;;;16.52;;
75358;SDS011;64046;51.978;5.934;2023-04-16T05:34:24;37.15;;;15.82;;
75358;SDS011;64046;51.978;5.934;2023-04-16T05:36:56;37.55;;;14.88;;
75358;SDS011;64046;51.978;5.934;2023-04-16T05:39:26;41.03;;;18.55;;
75358;SDS011;64046;51.978;5.934;2023-04-16T05:41:55;38.92;;;14.73;;
75358;SDS011;64046;51.978;5.934;2023-04-16T05:44:24;36.10;;;15.82;;
75358;SDS011;64046;51.978;5.934;2023-04-16T05:46:53;38.53;;;16.92;;
75358;SDS011;64046;51.978;5.934;2023-04-16T05:49:22;32.85;;;14.23;;
75358;SDS011;64046;51.978;5.934;2023-04-16T05:51:51;38.92;;;15.68;;
75358;SDS011;64046;51.978;5.934;2023-04-16T05:54:23;33.45;;;15.50;;
75358;SDS011;64046;51.978;5.934;2023-04-16T05:56:52;30.05;;;13.70;;
75358;SDS011;64046;51.978;5.934;2023-04-16T05:59:21;48.92;;;18.45;;
75358;SDS011;64046;51.978;5.934;2023-04-16T06:01:50;34.97;;;15.98;;
75358;SDS011;64046;51.978;5.934;2023-04-16T06:04:19;37.65;;;16.35;;
75358;SDS011;64046;51.978;5.934;2023-04-16T06:06:48;40.42;;;16.40;;
75358;SDS011;64046;51.978;5.934;2023-04-16T06:09:17;36.60;;;17.08;;
75358;SDS011;64046;51.978;5.934;2023-04-16T06:11:49;31.95;;;14.80;;
75358;SDS011;64046;51.978;5.934;2023-04-16T06:14:18;41.75;;;16.77;;
75358;SDS011;64046;51.978;5.934;2023-04-16T06:16:48;31.92;;;15.40;;
75358;SDS011;64046;51.978;5.934;2023-04-16T06:19:17;33.42;;;14.98;;
75358;SDS011;64046;51.978;5.934;2023-04-16T06:21:46;35.72;;;15.27;;
75358;SDS011;64046;51.978;5.934;2023-04-16T06:24:15;25.25;;;12.57;;
75358;SDS011;64046;51.978;5.934;2023-04-16T06:26:44;31.52;;;14.38;;
75358;SDS011;64046;51.978;5.934;2023-04-16T06:29:16;28.00;;;12.70;;
75358;SDS011;64046;51.978;5.934;2023-04-16T06:31:46;34.17;;;16.35;;
75358;SDS011;64046;51.978;5.934;2023-04-16T06:34:15;34.08;;;17.45;;
75358;SDS011;64046;51.978;5.934;2023-04-16T06:36:45;34.10;;;14.90;;
75358;SDS011;64046;51.978;5.934;2023-04-16T06:39:14;32.22;;;12.63;;
75358;SDS011;64046;51.978;5.934;2023-04-16T06:41:43;36.55;;;15.15;;
75358;SDS011;64046;51.978;5.934;2023-04-16T06:44:12;31.75;;;14.93;;
75358;SDS011;64046;51.978;5.934;2023-04-16T06:46:44;25.10;;;12.32;;
75358;SDS011;64046;51.978;5.934;2023-04-16T06:49:13;31.58;;;16.15;;
75358;SDS011;64046;51.978;5.934;2023-04-16T06:51:42;30.50;;;14.60;;
75358;SDS011;64046;51.978;5.934;2023-04-16T06:54:11;30.90;;;16.05;;
75358;SDS011;64046;51.978;5.934;2023-04-16T06:56:40;32.33;;;14.68;;
75358;SDS011;64046;51.978;5.934;2023-04-16T06:59:09;30.77;;;14.43;;
75358;SDS011;64046;51.978;5.934;2023-04-16T07:01:38;24.08;;;13.52;;
75358;SDS011;64046;51.978;5.934;2023-04-16T07:04:10;24.95;;;12.98;;
75358;SDS011;64046;51.978;5.934;2023-04-16T07:06:39;29.95;;;14.50;;
75358;SDS011;64046;51.978;5.934;2023-04-16T07:09:08;32.28;;;15.60;;
75358;SDS011;64046;51.978;5.934;2023-04-16T07:11:37;31.88;;;13.80;;
75358;SDS011;64046;51.978;5.934;2023-04-16T07:14:07;29.15;;;13.48;;
75358;SDS011;64046;51.978;5.934;2023-04-16T07:16:36;26.52;;;13.55;;
75358;SDS011;64046;51.978;5.934;2023-04-16T07:19:05;28.65;;;15.32;;
75358;SDS011;64046;51.978;5.934;2023-04-16T07:21:37;27.25;;;13.40;;
75358;SDS011;64046;51.978;5.934;2023-04-16T07:24:06;29.48;;;13.48;;
75358;SDS011;64046;51.978;5.934;2023-04-16T07:26:35;26.30;;;14.63;;
75358;SDS011;64046;51.978;5.934;2023-04-16T07:29:05;22.25;;;12.27;;
75358;SDS011;64046;51.978;5.934;2023-04-16T07:31:34;33.72;;;15.68;;
75358;SDS011;64046;51.978;5.934;2023-04-16T07:34:03;26.85;;;13.82;;
75358;SDS011;64046;51.978;5.934;2023-04-16T07:36:32;22.40;;;12.73;;
75358;SDS011;64046;51.978;5.934;2023-04-16T07:39:04;27.98;;;14.77;;
75358;SDS011;64046;51.978;5.934;2023-04-16T07:41:33;25.55;;;13.13;;
75358;SDS011;64046;51.978;5.934;2023-04-16T07:44:02;25.83;;;13.35;;
75358;SDS011;64046;51.978;5.934;2023-04-16T07:46:31;28.58;;;14.23;;
75358;SDS011;64046;51.978;5.934;2023-04-16T07:49:00;30.33;;;15.10;;
75358;SDS011;64046;51.978;5.934;2023-04-16T07:51:29;26.13;;;15.05;;
75358;SDS011;64046;51.978;5.934;2023-04-16T07:53:59;30.05;;;15.35;;
75358;SDS011;64046;51.978;5.934;2023-04-16T07:56:30;26.48;;;12.63;;
75358;SDS011;64046;51.978;5.934;2023-04-16T07:58:59;24.55;;;12.82;;
75358;SDS011;64046;51.978;5.934;2023-04-16T08:01:29;30.15;;;15.57;;
75358;SDS011;64046;51.978;5.934;2023-04-16T08:03:58;28.98;;;15.07;;
75358;SDS011;64046;51.978;5.934;2023-04-16T08:06:27;23.98;;;13.00;;
75358;SDS011;64046;51.978;5.934;2023-04-16T08:08:56;25.90;;;13.15;;
75358;SDS011;64046;51.978;5.934;2023-04-16T08:11:25;31.20;;;14.35;;
75358;SDS011;64046;51.978;5.934;2023-04-16T08:13:57;28.55;;;13.40;;
75358;SDS011;64046;51.978;5.934;2023-04-16T08:16:26;32.42;;;15.00;;
75358;SDS011;64046;51.978;5.934;2023-04-16T08:18:55;24.60;;;12.57;;
75358;SDS011;64046;51.978;5.934;2023-04-16T08:21:25;26.13;;;13.85;;
75358;SDS011;64046;51.978;5.934;2023-04-16T08:23:56;24.50;;;12.07;;
75358;SDS011;64046;51.978;5.934;2023-04-16T08:26:25;32.55;;;14.57;;
75358;SDS011;64046;51.978;5.934;2023-04-16T08:28:57;34.88;;;15.88;;
75358;SDS011;64046;51.978;5.934;2023-04-16T08:31:26;26.52;;;14.57;;
75358;SDS011;64046;51.978;5.934;2023-04-16T08:33:55;32.05;;;14.30;;
75358;SDS011;64046;51.978;5.934;2023-04-16T08:36:24;29.63;;;14.02;;
75358;SDS011;64046;51.978;5.934;2023-04-16T08:38:53;29.88;;;14.18;;
75358;SDS011;64046;51.978;5.934;2023-04-16T08:41:22;26.73;;;13.32;;
75358;SDS011;64046;51.978;5.934;2023-04-16T08:43:56;33.97;;;15.52;;
75358;SDS011;64046;51.978;5.934;2023-04-16T08:46:28;33.88;;;15.10;;
75358;SDS011;64046;51.978;5.934;2023-04-16T08:48:59;24.63;;;13.35;;
75358;SDS011;64046;51.978;5.934;2023-04-16T08:51:29;29.90;;;14.00;;
75358;SDS011;64046;51.978;5.934;2023-04-16T08:54:02;34.05;;;15.40;;
75358;SDS011;64046;51.978;5.934;2023-04-16T08:56:34;33.05;;;15.60;;
75358;SDS011;64046;51.978;5.934;2023-04-16T08:59:07;29.42;;;14.55;;
75358;SDS011;64046;51.978;5.934;2023-04-16T09:01:37;32.88;;;15.25;;
75358;SDS011;64046;51.978;5.934;2023-04-16T09:04:06;40.33;;;17.77;;
75358;SDS011;64046;51.978;5.934;2023-04-16T09:06:36;30.48;;;16.30;;
75358;SDS011;64046;51.978;5.934;2023-04-16T09:09:06;34.33;;;16.00;;
75358;SDS011;64046;51.978;5.934;2023-04-16T09:11:36;32.78;;;16.92;;
75358;SDS011;64046;51.978;5.934;2023-04-16T09:14:10;46.00;;;18.52;;
75358;SDS011;64046;51.978;5.934;2023-04-16T09:16:40;40.00;;;18.20;;
75358;SDS011;64046;51.978;5.934;2023-04-16T09:19:09;37.45;;;18.83;;
75358;SDS011;64046;51.978;5.934;2023-04-16T09:21:39;29.05;;;15.98;;
75358;SDS011;64046;51.978;5.934;2023-04-16T09:24:09;31.48;;;16.58;;
75358;SDS011;64046;51.978;5.934;2023-04-16T09:26:39;30.88;;;14.77;;
75358;SDS011;64046;51.978;5.934;2023-04-16T09:29:12;36.35;;;16.75;;
75358;SDS011;64046;51.978;5.934;2023-04-16T09:32:01;37.60;;;17.77;;
75358;SDS011;64046;51.978;5.934;2023-04-16T09:34:31;33.80;;;16.02;;
75358;SDS011;64046;51.978;5.934;2023-04-16T09:39:51;40.30;;;17.45;;
75358;SDS011;64046;51.978;5.934;2023-04-16T09:42:22;33.58;;;15.23;;
75358;SDS011;64046;51.978;5.934;2023-04-16T09:44:55;34.35;;;17.02;;
75358;SDS011;64046;51.978;5.934;2023-04-16T09:47:24;33.80;;;16.80;;
75358;SDS011;64046;51.978;5.934;2023-04-16T09:49:57;36.92;;;16.70;;
75358;SDS011;64046;51.978;5.934;2023-04-16T09:52:26;40.78;;;18.02;;
75358;SDS011;64046;51.978;5.934;2023-04-16T09:54:56;30.80;;;15.82;;
75358;SDS011;64046;51.978;5.934;2023-04-16T09:57:25;30.35;;;15.57;;
75358;SDS011;64046;51.978;5.934;2023-04-16T10:00:00;32.65;;;16.38;;
75358;SDS011;64046;51.978;5.934;2023-04-16T10:02:30;26.95;;;14.48;;
75358;SDS011;64046;51.978;5.934;2023-04-16T10:05:00;32.63;;;17.05;;
75358;SDS011;64046;51.978;5.934;2023-04-16T10:07:32;40.13;;;17.70;;
75358;SDS011;64046;51.978;5.934;2023-04-16T10:10:02;33.40;;;16.75;;
75358;SDS011;64046;51.978;5.934;2023-04-16T10:12:32;28.80;;;14.05;;
75358;SDS011;64046;51.978;5.934;2023-04-16T10:15:04;28.38;;;14.95;;
75358;SDS011;64046;51.978;5.934;2023-04-16T10:17:34;25.30;;;12.95;;
75358;SDS011;64046;51.978;5.934;2023-04-16T10:20:05;33.72;;;16.20;;
75358;SDS011;64046;51.978;5.934;2023-04-16T10:22:35;25.10;;;14.48;;
75358;SDS011;64046;51.978;5.934;2023-04-16T10:25:05;32.67;;;16.73;;
75358;SDS011;64046;51.978;5.934;2023-04-16T10:27:35;31.98;;;16.58;;
75358;SDS011;64046;51.978;5.934;2023-04-16T10:30:08;26.65;;;12.88;;
75358;SDS011;64046;51.978;5.934;2023-04-16T10:32:38;31.00;;;16.00;;
75358;SDS011;64046;51.978;5.934;2023-04-16T10:35:09;31.02;;;15.02;;
75358;SDS011;64046;51.978;5.934;2023-04-16T10:37:43;34.95;;;16.85;;
75358;SDS011;64046;51.978;5.934;2023-04-16T10:40:22;29.38;;;15.73;;
75358;SDS011;64046;51.978;5.934;2023-04-16T10:42:53;32.97;;;16.02;;
75358;SDS011;64046;51.978;5.934;2023-04-16T10:45:29;32.85;;;15.57;;
75358;SDS011;64046;51.978;5.934;2023-04-16T10:48:03;34.33;;;16.15;;
75358;SDS011;64046;51.978;5.934;2023-04-16T10:50:34;33.90;;;16.10;;
75358;SDS011;64046;51.978;5.934;2023-04-16T10:53:16;35.55;;;16.55;;
75358;SDS011;64046;51.978;5.934;2023-04-16T10:55:56;37.30;;;17.08;;
75358;SDS011;64046;51.978;5.934;2023-04-16T10:58:25;33.72;;;15.90;;
75358;SDS011;64046;51.978;5.934;2023-04-16T11:01:00;37.25;;;15.93;;
75358;SDS011;64046;51.978;5.934;2023-04-16T11:03:34;42.47;;;16.77;;
75358;SDS011;64046;51.978;5.934;2023-04-16T11:06:10;33.75;;;15.88;;
75358;SDS011;64046;51.978;5.934;2023-04-16T11:08:42;30.77;;;15.48;;
75358;SDS011;64046;51.978;5.934;2023-04-16T11:11:13;32.30;;;15.95;;
75358;SDS011;64046;51.978;5.934;2023-04-16T11:13:42;28.50;;;14.32;;
75358;SDS011;64046;51.978;5.934;2023-04-16T11:16:15;31.30;;;14.95;;
75358;SDS011;64046;51.978;5.934;2023-04-16T11:18:44;35.40;;;15.10;;
75358;SDS011;64046;51.978;5.934;2023-04-16T11:21:14;30.73;;;14.85;;
75358;SDS011;64046;51.978;5.934;2023-04-16T11:23:46;27.02;;;14.23;;
75358;SDS011;64046;51.978;5.934;2023-04-16T11:26:20;26.85;;;14.18;;
75358;SDS011;64046;51.978;5.934;2023-04-16T11:28:52;30.55;;;15.02;;
75358;SDS011;64046;51.978;5.934;2023-04-16T11:31:24;32.17;;;15.93;;
75358;SDS011;64046;51.978;5.934;2023-04-16T11:33:56;32.65;;;14.55;;
75358;SDS011;64046;51.978;5.934;2023-04-16T11:36:25;34.30;;;15.40;;
75358;SDS011;64046;51.978;5.934;2023-04-16T11:39:00;26.67;;;12.93;;
75358;SDS011;64046;51.978;5.934;2023-04-16T11:41:30;32.33;;;14.68;;
75358;SDS011;64046;51.978;5.934;2023-04-16T11:43:59;36.85;;;14.68;;
75358;SDS011;64046;51.978;5.934;2023-04-16T11:46:40;35.95;;;15.35;;
75358;SDS011;64046;51.978;5.934;2023-04-16T11:49:09;32.15;;;13.50;;
75358;SDS011;64046;51.978;5.934;2023-04-16T11:51:38;25.20;;;11.73;;
75358;SDS011;64046;51.978;5.934;2023-04-16T11:54:08;27.90;;;13.15;;
75358;SDS011;64046;51.978;5.934;2023-04-16T11:56:37;25.83;;;13.50;;
75358;SDS011;64046;51.978;5.934;2023-04-16T11:59:14;30.08;;;13.88;;
75358;SDS011;64046;51.978;5.934;2023-04-16T12:01:48;26.02;;;13.43;;
75358;SDS011;64046;51.978;5.934;2023-04-16T12:04:21;34.38;;;14.38;;
75358;SDS011;64046;51.978;5.934;2023-04-16T12:07:04;33.55;;;14.00;;
75358;SDS011;64046;51.978;5.934;2023-04-16T12:09:34;27.23;;;12.82;;
75358;SDS011;64046;51.978;5.934;2023-04-16T12:12:04;31.73;;;13.80;;
75358;SDS011;64046;51.978;5.934;2023-04-16T12:14:35;23.00;;;13.23;;
75358;SDS011;64046;51.978;5.934;2023-04-16T12:17:19;29.55;;;13.38;;
75358;SDS011;64046;51.978;5.934;2023-04-16T12:19:49;25.67;;;13.00;;
75358;SDS011;64046;51.978;5.934;2023-04-16T12:22:25;28.67;;;13.50;;
75358;SDS011;64046;51.978;5.934;2023-04-16T12:24:57;33.17;;;14.88;;
75358;SDS011;64046;51.978;5.934;2023-04-16T12:27:39;22.58;;;11.73;;
75358;SDS011;64046;51.978;5.934;2023-04-16T12:30:10;29.67;;;12.82;;
75358;SDS011;64046;51.978;5.934;2023-04-16T12:32:43;31.55;;;13.98;;
75358;SDS011;64046;51.978;5.934;2023-04-16T12:35:18;29.25;;;13.63;;
75358;SDS011;64046;51.978;5.934;2023-04-16T12:37:57;30.38;;;13.15;;
75358;SDS011;64046;51.978;5.934;2023-04-16T12:40:26;31.90;;;12.65;;
75358;SDS011;64046;51.978;5.934;2023-04-16T12:42:55;25.33;;;11.82;;
75358;SDS011;64046;51.978;5.934;2023-04-16T12:45:25;25.63;;;12.55;;
75358;SDS011;64046;51.978;5.934;2023-04-16T12:47:56;21.52;;;10.63;;
75358;SDS011;64046;51.978;5.934;2023-04-16T12:50:26;25.63;;;12.68;;
75358;SDS011;64046;51.978;5.934;2023-04-16T12:52:56;26.40;;;11.85;;
75358;SDS011;64046;51.978;5.934;2023-04-16T12:55:26;24.42;;;12.43;;
75358;SDS011;64046;51.978;5.934;2023-04-16T12:57:55;25.80;;;11.65;;
75358;SDS011;64046;51.978;5.934;2023-04-16T13:00:24;24.48;;;12.38;;
75358;SDS011;64046;51.978;5.934;2023-04-16T13:02:55;30.35;;;13.60;;
75358;SDS011;64046;51.978;5.934;2023-04-16T13:05:25;26.98;;;13.02;;
75358;SDS011;64046;51.978;5.934;2023-04-16T13:07:54;30.13;;;12.98;;
75358;SDS011;64046;51.978;5.934;2023-04-16T13:10:23;27.38;;;12.48;;
75358;SDS011;64046;51.978;5.934;2023-04-16T13:12:52;31.77;;;13.82;;
75358;SDS011;64046;51.978;5.934;2023-04-16T13:15:21;31.98;;;13.02;;
75358;SDS011;64046;51.978;5.934;2023-04-16T13:17:51;23.92;;;12.80;;
75358;SDS011;64046;51.978;5.934;2023-04-16T13:20:22;32.20;;;13.43;;
75358;SDS011;64046;51.978;5.934;2023-04-16T13:22:51;22.88;;;10.93;;
75358;SDS011;64046;51.978;5.934;2023-04-16T13:25:21;27.90;;;12.05;;
75358;SDS011;64046;51.978;5.934;2023-04-16T13:27:50;23.35;;;12.27;;
75358;SDS011;64046;51.978;5.934;2023-04-16T13:30:19;22.73;;;12.52;;
75358;SDS011;64046;51.978;5.934;2023-04-16T13:32:48;24.23;;;12.30;;
75358;SDS011;64046;51.978;5.934;2023-04-16T13:35:17;20.92;;;12.07;;
75358;SDS011;64046;51.978;5.934;2023-04-16T13:37:49;21.73;;;12.18;;
75358;SDS011;64046;51.978;5.934;2023-04-16T13:40:18;23.05;;;12.10;;
75358;SDS011;64046;51.978;5.934;2023-04-16T13:42:48;24.45;;;12.98;;
75358;SDS011;64046;51.978;5.934;2023-04-16T13:45:17;28.40;;;12.65;;
75358;SDS011;64046;51.978;5.934;2023-04-16T13:47:47;26.45;;;12.65;;
75358;SDS011;64046;51.978;5.934;2023-04-16T13:50:16;22.95;;;12.00;;
75358;SDS011;64046;51.978;5.934;2023-04-16T13:52:45;28.25;;;13.18;;
75358;SDS011;64046;51.978;5.934;2023-04-16T13:55:17;26.45;;;12.77;;
75358;SDS011;64046;51.978;5.934;2023-04-16T13:57:46;33.10;;;13.55;;
75358;SDS011;64046;51.978;5.934;2023-04-16T14:00:17;29.05;;;12.93;;
75358;SDS011;64046;51.978;5.934;2023-04-16T14:02:46;30.23;;;12.85;;
75358;SDS011;64046;51.978;5.934;2023-04-16T14:05:16;28.83;;;12.73;;
75358;SDS011;64046;51.978;5.934;2023-04-16T14:07:45;28.25;;;13.02;;
75358;SDS011;64046;51.978;5.934;2023-04-16T14:10:17;20.73;;;11.32;;
75358;SDS011;64046;51.978;5.934;2023-04-16T14:12:46;24.02;;;12.38;;
75358;SDS011;64046;51.978;5.934;2023-04-16T14:15:16;24.33;;;12.07;;
75358;SDS011;64046;51.978;5.934;2023-04-16T14:17:45;22.52;;;12.32;;
75358;SDS011;64046;51.978;5.934;2023-04-16T14:20:14;31.17;;;12.48;;
75358;SDS011;64046;51.978;5.934;2023-04-16T14:22:46;24.40;;;11.60;;
75358;SDS011;64046;51.978;5.934;2023-04-16T14:25:18;26.75;;;12.70;;
75358;SDS011;64046;51.978;5.934;2023-04-16T14:27:47;21.83;;;11.13;;
75358;SDS011;64046;51.978;5.934;2023-04-16T14:30:16;21.65;;;11.02;;
75358;SDS011;64046;51.978;5.934;2023-04-16T14:32:46;25.33;;;11.75;;
75358;SDS011;64046;51.978;5.934;2023-04-16T14:35:15;24.30;;;12.27;;
75358;SDS011;64046;51.978;5.934;2023-04-16T14:37:44;23.48;;;11.57;;
75358;SDS011;64046;51.978;5.934;2023-04-16T14:40:14;23.70;;;12.27;;
75358;SDS011;64046;51.978;5.934;2023-04-16T14:42:45;19.38;;;10.27;;
75358;SDS011;64046;51.978;5.934;2023-04-16T14:45:15;25.42;;;10.55;;